EST,Max TemperatureF,Mean TemperatureF,Min TemperatureF,Max Dew PointF,MeanDew PointF,Min DewpointF,Max Humidity, Mean Humidity, Min Humidity, Max Sea Level PressureIn, Mean Sea Level PressureIn, Min Sea Level PressureIn, Max VisibilityMiles, Mean VisibilityMiles, Min VisibilityMiles, Max Wind SpeedMPH, Mean Wind SpeedMPH, Max Gust SpeedMPH,PrecipitationIn, CloudCover, Events, WindDirDegrees
2013-11-1,60,55,49,55,47,39,86,67,47,29.70,29.54,29.34,10,9,2,33,13,45,0.28,6,Rain,240
2013-11-2,51,46,40,43,40,37,89,75,61,29.91,29.75,29.65,10,10,5,18,9,26,0.09,8,Rain,275
2013-11-3,46,37,27,36,28,18,89,65,40,30.48,30.18,29.94,10,10,8,15,8,21,T,5,Snow,352
2013-11-4,40,31,22,19,15,10,81,56,30,30.61,30.54,30.49,10,10,10,14,8,22,0.00,0,,116
2013-11-5,53,44,35,33,23,19,67,50,32,30.54,30.47,30.38,10,10,10,13,8,17,0.00,0,,122
2013-11-6,69,53,36,54,43,32,85,64,42,30.36,30.11,29.91,10,9,2,23,9,30,0.11,5,Rain,177
2013-11-7,57,46,34,54,39,23,93,74,54,30.08,29.95,29.82,10,9,3,25,11,36,0.50,8,Rain,289
2013-11-8,41,35,29,31,28,22,89,72,54,30.28,30.13,29.99,10,7,0,23,11,31,T,7,Fog-Snow,268
2013-11-9,51,39,27,28,23,21,81,56,30,30.27,30.10,29.90,10,10,10,21,8,26,0.00,3,,208
2013-11-10,50,44,37,35,29,25,70,53,36,30.22,30.03,29.89,10,10,10,28,15,38,T,6,,269
2013-11-11,45,38,30,34,29,24,89,67,45,30.23,30.11,29.99,10,8,2,23,11,31,0.06,7,Snow,255
2013-11-12,33,29,25,28,21,13,85,66,47,30.41,30.22,30.03,10,6,1,20,11,28,0.04,7,Snow,325
2013-11-13,35,30,24,21,19,16,88,70,51,30.48,30.39,30.30,10,10,6,20,12,24,T,5,,265
2013-11-14,45,36,26,19,17,16,68,50,31,30.30,30.24,30.19,10,10,10,20,12,28,0.00,0,,227
2013-11-15,53,45,36,26,18,16,47,37,26,30.21,30.17,30.13,10,10,10,17,8,22,0.00,1,,215
2013-11-16,59,48,36,43,37,28,85,65,45,30.26,30.18,30.07,10,10,10,13,6,17,0.00,0,,158
2013-11-17,58,54,49,54,50,44,93,84,74,30.06,29.82,29.52,10,6,1,39,12,55,1.23,8,Rain,154
2013-11-18,54,44,34,44,32,25,71,56,41,29.99,29.79,29.58,10,9,1,36,18,49,0.01,6,Snow,265
2013-11-19,38,32,25,25,22,19,75,64,52,30.41,30.21,29.97,10,10,7,20,8,30,0.00,6,,310
2013-11-20,43,32,21,20,14,7,84,53,22,30.52,30.46,30.42,10,10,10,15,9,21,0.00,0,,110
2013-11-21,44,38,31,35,27,12,75,58,41,30.47,30.39,30.25,10,10,10,14,9,18,0.01,5,Rain,125
2013-11-22,50,42,34,48,42,27,93,84,75,30.24,30.11,30.02,10,4,0,21,9,29,0.12,8,Fog-Rain,263
2013-11-23,35,26,17,26,18,10,80,68,56,30.23,30.12,30.01,10,5,0,28,14,38,0.03,7,Fog-Snow,296
2013-11-24,22,18,13,13,10,4,80,63,45,30.47,30.31,30.14,10,6,0,22,12,31,0.02,6,Fog-Snow,291
2013-11-25,33,21,9,19,7,4,84,57,30,30.48,30.35,30.22,10,10,9,26,8,36,0.00,3,,224
2013-11-26,34,31,28,32,28,21,92,71,49,30.20,30.01,29.67,10,3,0,17,7,24,1.03,8,Fog-Rain-Snow,147
2013-11-27,34,28,21,32,23,15,89,81,72,30.00,29.74,29.59,10,5,0,23,13,33,0.03,8,Snow,300
2013-11-28,24,21,18,17,15,12,84,75,65,30.41,30.19,29.95,10,6,2,23,8,30,T,8,Snow,259
2013-11-29,29,25,20,20,18,16,91,77,63,30.69,30.56,30.39,10,10,8,10,4,12,0.00,6,,267
2013-11-30,30,24,18,21,17,12,84,74,63,30.65,30.47,30.27,10,10,8,17,9,24,0.00,1,,123